Time;durP1;ratioP1;P1;durP2;ratioP2;P2;SDS_P1;SDS_P2;PMS_P1;PMS_P2;Temp;Humidity;BMP_temperature;BMP_pressure;BME280_temperature;BME280_humidity;BME280_pressure;Samples;Min_cycle;Max_cycle;Signal;HPM_P1;HPM_P2
2021/09/20 00:00:40;;;;;;;;;0.50;0.00;;;;;16.23;69.22;101045.59;5088382;27;45663;-86
2021/09/20 00:03:06;;;;;;;;;0.00;0.00;;;;;16.21;69.29;101060.75;5084198;27;45642;-81
2021/09/20 00:05:31;;;;;;;;;0.00;0.00;;;;;16.15;69.84;101041.94;5081095;28;45589;-84
2021/09/20 00:07:57;;;;;;;;;1.00;0.00;;;;;16.06;70.28;101046.25;5079850;27;45558;-82
2021/09/20 00:10:23;;;;;;;;;0.00;0.00;;;;;16.01;70.82;101053.72;5078459;28;46302;-82
2021/09/20 00:12:48;;;;;;;;;0.00;0.00;;;;;15.92;72.01;101042.13;5078711;27;46291;-83
2021/09/20 00:15:14;;;;;;;;;0.00;0.00;;;;;15.80;71.97;101035.28;5079197;27;45602;-81
2021/09/20 00:17:39;;;;;;;;;0.00;0.00;;;;;15.67;72.51;101039.94;5078439;27;45709;-86
2021/09/20 00:23:26;;;;;;;;;0.00;0.00;;;;;15.57;74.88;101046.97;5076771;28;45509;-80
2021/09/20 00:25:53;;;;;;;;;0.00;0.00;;;;;15.48;75.54;101045.94;5079366;28;45688;-79
2021/09/20 00:28:18;;;;;;;;;0.00;0.00;;;;;15.42;76.45;101040.31;5081009;27;45529;-81
2021/09/20 00:30:45;;;;;;;;;0.00;0.00;;;;;15.42;77.09;101040.31;5084677;27;46248;-78
2021/09/20 00:33:10;;;;;;;;;0.50;0.50;;;;;15.34;77.68;101025.13;5084952;28;47614;-77
2021/09/20 00:38:58;;;;;;;;;0.00;0.00;;;;;15.33;78.42;101027.91;5071011;28;45885;-77
2021/09/20 00:41:23;;;;;;;;;1.00;1.00;;;;;15.40;78.60;101040.44;5080764;28;45762;-78
2021/09/20 00:43:49;;;;;;;;;1.25;1.25;;;;;15.37;79.10;101034.59;5080516;27;46103;-77
2021/09/20 00:46:15;;;;;;;;;1.00;1.00;;;;;15.27;79.19;101010.78;5081571;27;45703;-78
2021/09/20 00:48:41;;;;;;;;;1.00;1.00;;;;;15.10;79.66;100983.16;5079515;27;45682;-81
2021/09/20 00:51:06;;;;;;;;;1.00;0.00;;;;;15.43;80.81;101034.09;5079431;27;46459;-77
2021/09/20 00:53:32;;;;;;;;;0.00;0.00;;;;;15.47;85.31;101031.03;5079942;27;45579;-90
2021/09/20 00:55:59;;;;;;;;;1.00;0.50;;;;;15.31;85.89;100996.34;5083009;27;45529;-89
2021/09/20 00:58:24;;;;;;;;;0.25;0.25;;;;;15.48;86.75;101023.97;5082665;27;45655;-87
2021/09/20 01:00:50;;;;;;;;;1.00;1.00;;;;;15.48;87.56;101023.97;5086948;27;45625;-82
2021/09/20 01:03:16;;;;;;;;;1.75;1.00;;;;;15.51;88.23;101036.91;5085174;27;46204;-83
2021/09/20 01:09:03;;;;;;;;;2.25;1.00;;;;;15.53;89.12;101027.09;5088394;28;45614;-82
2021/09/20 01:11:31;;;;;;;;;2.75;1.00;;;;;15.36;88.89;100994.16;5083750;27;45679;-84
2021/09/20 01:13:57;;;;;;;;;2.00;1.00;;;;;15.60;89.49;101027.41;5083166;27;45574;-90
2021/09/20 01:16:22;;;;;;;;;1.00;1.00;;;;;15.60;89.77;101028.22;5082752;28;45545;-85
2021/09/20 01:18:47;;;;;;;;;1.25;1.00;;;;;15.58;89.67;101010.84;5080299;27;45532;-81
2021/09/20 01:21:15;;;;;;;;;1.00;1.00;;;;;15.52;89.57;101007.75;5078944;27;46480;-87
2021/09/20 01:23:42;;;;;;;;;1.00;1.00;;;;;15.61;90.19;101014.03;5077925;27;46176;-91
2021/09/20 01:26:09;;;;;;;;;1.00;0.50;;;;;15.53;90.24;101004.16;5079555;27;45722;-84
2021/09/20 01:28:35;;;;;;;;;0.75;0.75;;;;;15.55;90.37;101001.34;5086666;27;45732;-79
2021/09/20 01:31:00;;;;;;;;;1.00;1.00;;;;;15.62;90.69;101026.28;5085781;27;47020;-83
2021/09/20 01:33:26;;;;;;;;;1.00;1.00;;;;;15.62;90.49;101015.72;5085155;28;45663;-88
2021/09/20 01:39:17;;;;;;;;;1.00;0.75;;;;;15.59;90.89;101021.28;5082672;28;45496;-85
2021/09/20 01:41:45;;;;;;;;;2.00;1.00;;;;;15.60;90.82;101022.13;5084343;27;46286;-91
2021/09/20 01:44:10;;;;;;;;;3.25;1.25;;;;;15.57;91.04;101012.63;5085013;27;46743;-87
2021/09/20 01:46:35;;;;;;;;;1.00;1.00;;;;;15.60;90.88;101009.72;5081582;27;45486;-78
2021/09/20 01:49:01;;;;;;;;;2.00;1.00;;;;;15.58;91.19;101009.03;5079576;27;45490;-80
2021/09/20 01:51:27;;;;;;;;;1.75;1.25;;;;;15.60;91.08;101012.38;5081164;27;47268;-83
2021/09/20 01:53:53;;;;;;;;;1.25;1.00;;;;;15.61;91.19;101008.75;5081034;27;46183;-78
2021/09/20 01:56:18;;;;;;;;;3.50;1.00;;;;;15.61;91.21;101011.41;5079421;27;45498;-77
2021/09/20 01:58:43;;;;;;;;;1.00;1.00;;;;;15.63;91.30;101013.91;5079809;27;45520;-88
2021/09/20 02:01:09;;;;;;;;;1.00;1.00;;;;;15.57;91.32;100998.59;5078966;27;46498;-91
2021/09/20 02:03:34;;;;;;;;;1.50;1.50;;;;;15.65;91.19;101004.91;5077939;27;45672;-90
2021/09/20 02:09:22;;;;;;;;;3.00;1.00;;;;;15.50;91.14;100977.13;5092689;28;45308;-85
2021/09/20 02:11:47;;;;;;;;;2.00;1.50;;;;;15.55;91.61;100980.22;5090835;27;46399;-87
2021/09/20 02:14:13;;;;;;;;;2.50;2.00;;;;;15.71;91.49;101003.53;5087757;27;45557;-89
2021/09/20 02:16:38;;;;;;;;;1.25;1.00;;;;;15.65;91.42;100983.78;5089013;27;45518;-82
2021/09/20 02:19:04;;;;;;;;;1.00;1.00;;;;;15.72;91.46;100994.63;5088114;27;45783;-90
2021/09/20 02:24:52;;;;;;;;;1.00;1.00;;;;;15.74;91.88;100992.69;5090878;28;45569;-86
2021/09/20 02:27:17;;;;;;;;;2.75;1.75;;;;;15.71;91.81;100982.41;5092508;27;45506;-82
2021/09/20 02:29:43;;;;;;;;;3.00;2.00;;;;;15.75;91.71;100989.09;5091451;27;45510;-84
2021/09/20 02:32:08;;;;;;;;;2.50;1.50;;;;;15.76;91.76;100986.31;5092040;28;46789;-87
2021/09/20 02:34:33;;;;;;;;;1.00;1.00;;;;;15.76;91.99;100986.31;5085377;27;45631;-90
2021/09/20 02:36:59;;;;;;;;;0.00;0.00;;;;;15.73;91.80;100976.00;5083427;27;45849;-85
2021/09/20 02:39:24;;;;;;;;;2.50;1.75;;;;;15.75;91.67;100991.75;5083933;27;45572;-92
2021/09/20 02:41:50;;;;;;;;;3.00;1.00;;;;;15.75;91.80;100992.56;5082201;27;46219;-87
2021/09/20 02:44:15;;;;;;;;;1.00;1.00;;;;;15.78;92.11;100992.28;5082594;27;46233;-84
2021/09/20 02:46:41;;;;;;;;;1.00;1.00;;;;;15.75;91.67;100987.28;5082428;27;45483;-89
2021/09/20 02:49:07;;;;;;;;;1.00;1.00;;;;;15.79;91.70;100988.69;5080627;27;45527;-86
2021/09/20 02:54:53;;;;;;;;;1.25;1.00;;;;;15.79;91.56;100983.41;5076032;28;45937;-76
2021/09/20 02:57:19;;;;;;;;;1.50;1.00;;;;;15.75;91.58;100975.88;5074912;27;45627;-77
2021/09/20 02:59:44;;;;;;;;;1.00;1.00;;;;;15.81;91.81;100994.69;5074179;28;45585;-76
2021/09/20 03:02:10;;;;;;;;;0.00;0.00;;;;;15.72;91.58;100966.41;5074904;27;46359;-78
2021/09/20 03:10:40;;;;;;;;;1.00;1.00;;;;;15.82;91.35;100982.28;5074620;28;45663;-75
2021/09/20 03:13:06;;;;;;;;;1.00;1.00;;;;;15.87;91.46;100993.31;5076480;27;45482;-78
2021/09/20 03:15:31;;;;;;;;;2.00;2.00;;;;;15.85;91.37;100982.88;5078851;27;46306;-80
2021/09/20 03:17:57;;;;;;;;;1.00;1.00;;;;;15.92;91.22;100986.63;5078704;27;45422;-80
2021/09/20 03:20:23;;;;;;;;;1.00;1.00;;;;;15.95;91.41;100989.03;5078960;27;45740;-81
2021/09/20 03:22:48;;;;;;;;;1.00;1.00;;;;;16.00;91.36;100990.41;5078777;27;45610;-82
2021/09/20 03:25:14;;;;;;;;;3.25;2.00;;;;;15.98;91.28;100987.09;5078135;27;46174;-80
2021/09/20 03:27:41;;;;;;;;;1.00;1.00;;;;;16.00;91.33;100985.97;5079560;27;45644;-82
2021/09/20 03:30:07;;;;;;;;;2.00;1.00;;;;;16.00;91.00;100991.25;5081115;27;45867;-77
2021/09/20 03:32:32;;;;;;;;;2.00;1.00;;;;;16.05;91.11;100999.63;5080543;27;46124;-76
2021/09/20 03:38:19;;;;;;;;;2.50;1.75;;;;;16.00;91.12;100983.34;5078488;28;45754;-80
2021/09/20 03:40:45;;;;;;;;;1.25;1.25;;;;;15.99;90.87;100991.38;5077708;27;45541;-88
2021/09/20 03:43:10;;;;;;;;;1.00;1.00;;;;;16.04;90.86;100999.75;5078372;27;46459;-86
2021/09/20 03:45:36;;;;;;;;;2.00;1.00;;;;;16.00;91.23;100998.34;5079297;27;45670;-83
2021/09/20 03:48:01;;;;;;;;;2.25;2.00;;;;;16.04;90.86;101007.69;5079193;27;45528;-86
2021/09/20 03:53:48;;;;;;;;;3.00;3.00;;;;;16.05;90.81;101001.44;5089452;28;45684;-77
2021/09/20 03:56:14;;;;;;;;;2.00;2.00;;;;;16.05;91.02;100991.69;5077295;28;45487;-80
2021/09/20 03:58:39;;;;;;;;;2.00;2.00;;;;;16.07;90.67;101002.97;5075820;28;45753;-78
2021/09/20 04:01:05;;;;;;;;;2.00;2.00;;;;;16.02;90.89;100989.34;5077409;27;45447;-78
2021/09/20 04:03:31;;;;;;;;;1.75;1.75;;;;;15.91;90.71;100982.34;5077161;27;46469;-79
2021/09/20 04:09:19;;;;;;;;;2.00;2.00;;;;;16.04;91.11;101003.22;5078480;28;45733;-82
2021/09/20 04:11:45;;;;;;;;;2.00;2.00;;;;;15.92;91.08;100983.19;5080137;27;45597;-82
2021/09/20 04:14:10;;;;;;;;;2.00;2.00;;;;;15.99;90.93;100994.03;5078925;27;45715;-75
2021/09/20 04:16:35;;;;;;;;;2.75;2.25;;;;;15.85;91.12;100971.47;5078043;27;45807;-75
2021/09/20 04:19:01;;;;;;;;;2.50;1.00;;;;;16.00;90.58;101001.84;5077846;27;45810;-82
2021/09/20 04:24:48;;;;;;;;;2.00;2.00;;;;;15.96;90.52;101000.44;5077350;28;45660;-78
2021/09/20 04:27:13;;;;;;;;;2.00;2.00;;;;;15.95;90.60;101004.88;5076987;27;45982;-78
2021/09/20 04:29:39;;;;;;;;;2.00;2.00;;;;;16.00;90.49;101001.00;5077310;28;45690;-81
2021/09/20 04:32:04;;;;;;;;;3.00;3.00;;;;;16.00;90.81;101004.47;5077967;27;45795;-80
2021/09/20 04:34:30;;;;;;;;;1.50;1.00;;;;;16.02;90.61;101009.63;5077647;27;46304;-82
2021/09/20 04:40:17;;;;;;;;;2.00;1.25;;;;;15.99;90.47;100994.88;5067667;28;45781;-80
2021/09/20 04:42:43;;;;;;;;;2.00;2.00;;;;;16.02;90.55;101009.63;5083019;27;45784;-84
2021/09/20 04:45:09;;;;;;;;;1.50;1.25;;;;;16.02;90.66;101014.94;5086425;27;46684;-88
2021/09/20 04:47:34;;;;;;;;;2.50;2.50;;;;;16.03;90.11;101006.03;5086171;27;46234;-90
2021/09/20 04:50:00;;;;;;;;;2.00;2.00;;;;;16.00;90.30;101001.84;5084318;27;45686;-88
2021/09/20 04:55:47;;;;;;;;;2.00;2.00;;;;;15.95;90.19;100991.66;5084677;28;46025;-91
2021/09/20 04:58:13;;;;;;;;;2.00;1.50;;;;;16.01;90.32;101006.16;5086084;27;45560;-89
2021/09/20 05:00:40;;;;;;;;;2.00;2.00;;;;;15.88;90.22;100976.47;5080743;28;45524;-79
2021/09/20 05:03:05;;;;;;;;;2.00;1.75;;;;;15.82;90.13;100975.19;5077904;27;45614;-87
2021/09/20 05:05:31;;;;;;;;;2.00;1.00;;;;;16.08;90.03;101012.59;5078780;28;45746;-79
2021/09/20 05:11:19;;;;;;;;;3.25;2.75;;;;;16.06;90.63;101003.09;5079700;28;45790;-80
2021/09/20 05:13:45;;;;;;;;;1.25;1.25;;;;;16.08;90.04;101006.47;5079686;27;45507;-78
2021/09/20 05:16:11;;;;;;;;;2.00;2.00;;;;;16.11;89.85;101014.13;5079827;27;46457;-80
2021/09/20 05:18:37;;;;;;;;;2.00;2.00;;;;;16.15;90.19;101016.34;5078925;28;45712;-81
2021/09/20 05:21:02;;;;;;;;;2.25;2.25;;;;;16.17;90.15;101024.16;5081882;27;45574;-79
2021/09/20 05:23:28;;;;;;;;;3.00;3.00;;;;;16.19;90.14;101022.22;5083221;27;45467;-83
2021/09/20 05:25:53;;;;;;;;;2.00;1.75;;;;;16.10;90.00;101007.97;5082052;27;47055;-81
2021/09/20 05:28:19;;;;;;;;;4.25;4.00;;;;;16.13;90.06;101014.81;5082253;27;47179;-88
2021/09/20 05:30:44;;;;;;;;;3.00;2.75;;;;;16.18;89.82;101021.38;5079912;28;45790;-79
2021/09/20 05:33:10;;;;;;;;;3.00;2.50;;;;;16.20;89.70;101030.00;5078569;27;45668;-80
2021/09/20 05:35:36;;;;;;;;;3.00;3.00;;;;;16.26;90.03;101025.97;5079761;27;45590;-81
2021/09/20 05:41:23;;;;;;;;;2.25;2.00;;;;;16.23;89.87;101026.25;5068837;28;45870;-84
2021/09/20 05:43:48;;;;;;;;;4.50;3.50;;;;;16.21;89.96;101018.44;5079206;27;45542;-85
2021/09/20 05:46:14;;;;;;;;;3.25;2.50;;;;;16.25;89.55;101026.94;5078358;27;46555;-81
2021/09/20 05:48:39;;;;;;;;;4.00;3.25;;;;;16.29;89.64;101031.84;5078019;27;45652;-89
2021/09/20 05:51:05;;;;;;;;;5.50;5.00;;;;;16.27;89.83;101023.22;5078398;27;45723;-93
2021/09/20 05:53:31;;;;;;;;;6.75;5.75;;;;;16.23;89.42;101020.97;5079332;27;45907;-90
2021/09/20 05:55:57;;;;;;;;;5.00;4.75;;;;;16.31;89.58;101031.69;5079860;27;45571;-92
2021/09/20 05:58:22;;;;;;;;;3.75;3.75;;;;;16.30;89.43;101033.50;5080431;27;46185;-91
2021/09/20 06:00:48;;;;;;;;;6.00;5.25;;;;;16.24;89.87;101018.19;5077999;27;45612;-88
2021/09/20 06:03:14;;;;;;;;;5.00;4.75;;;;;16.24;89.65;101030.59;5077424;28;45456;-78
2021/09/20 06:05:41;;;;;;;;;6.50;6.00;;;;;16.33;89.49;101041.19;5074557;27;46475;-77
2021/09/20 06:11:28;;;;;;;;;10.50;8.50;;;;;16.36;89.70;101043.53;5074606;28;45464;-76
2021/09/20 06:13:55;;;;;;;;;7.00;6.50;;;;;16.35;89.66;101038.41;5074787;28;45623;-77
2021/09/20 06:16:21;;;;;;;;;9.75;8.25;;;;;16.39;89.44;101042.44;5074827;27;45879;-77
2021/09/20 06:18:46;;;;;;;;;7.50;5.00;;;;;16.42;89.62;101052.75;5074388;28;45761;-77
2021/09/20 06:21:11;;;;;;;;;7.75;7.75;;;;;16.43;89.42;101054.41;5074626;27;45590;-76
2021/09/20 06:26:58;;;;;;;;;13.25;11.00;;;;;16.42;89.69;101052.75;5074222;28;45593;-77
2021/09/20 06:29:24;;;;;;;;;14.25;11.75;;;;;16.42;89.35;101047.44;5074766;27;45593;-77
2021/09/20 06:31:49;;;;;;;;;11.50;10.50;;;;;16.50;89.63;101062.66;5074362;27;45632;-78
2021/09/20 06:34:15;;;;;;;;;12.75;12.00;;;;;16.52;89.63;101052.78;5074596;27;45633;-77
2021/09/20 06:36:40;;;;;;;;;11.50;11.25;;;;;16.49;89.62;101053.03;5073923;27;47454;-78
2021/09/20 06:39:08;;;;;;;;;13.25;13.00;;;;;16.57;89.69;101071.72;5074401;27;46480;-77
2021/09/20 06:41:33;;;;;;;;;15.25;13.75;;;;;16.57;89.45;101066.44;5073844;27;45620;-78
2021/09/20 06:43:59;;;;;;;;;14.00;11.50;;;;;16.59;89.87;101067.16;5074378;27;45585;-76
2021/09/20 06:46:25;;;;;;;;;14.25;12.50;;;;;16.63;89.57;101073.84;5074594;27;46484;-78
2021/09/20 06:48:51;;;;;;;;;13.75;12.25;;;;;16.65;89.60;101071.91;5076872;27;45932;-76
2021/09/20 06:51:16;;;;;;;;;16.00;13.00;;;;;16.62;89.41;101066.91;5077430;27;45639;-78
2021/09/20 06:57:04;;;;;;;;;13.75;13.75;;;;;16.71;89.20;101085.44;5075367;28;45675;-78
2021/09/20 06:59:29;;;;;;;;;13.50;13.00;;;;;16.74;89.78;101086.94;5072163;28;46045;-77
2021/09/20 07:01:54;;;;;;;;;15.50;15.25;;;;;16.76;89.57;101090.31;5073795;27;45550;-77
2021/09/20 07:04:20;;;;;;;;;17.25;15.75;;;;;16.78;89.57;101089.22;5073755;27;45732;-79
2021/09/20 07:06:46;;;;;;;;;16.00;12.75;;;;;16.80;89.21;101091.69;5073637;27;45464;-78
2021/09/20 07:09:12;;;;;;;;;15.00;14.25;;;;;16.75;89.28;101089.47;5073471;27;46445;-78
2021/09/20 07:11:38;;;;;;;;;17.25;15.50;;;;;16.87;89.31;101097.28;5071780;28;45756;-79
2021/09/20 07:14:03;;;;;;;;;16.00;14.50;;;;;16.88;89.44;101101.59;5074044;27;45442;-79
2021/09/20 07:16:30;;;;;;;;;15.00;14.00;;;;;16.91;89.40;101098.66;5075295;27;45503;-78
2021/09/20 07:18:55;;;;;;;;;16.00;15.00;;;;;16.93;89.22;101094.94;5075058;27;46449;-76
2021/09/20 07:21:23;;;;;;;;;16.00;14.50;;;;;16.86;89.29;101082.38;5074695;27;45547;-78
2021/09/20 07:27:10;;;;;;;;;18.75;16.25;;;;;16.94;89.40;101104.56;5073250;28;46143;-78
2021/09/20 07:29:35;;;;;;;;;16.25;14.25;;;;;17.01;89.32;101118.88;5073670;27;45668;-77
2021/09/20 07:32:03;;;;;;;;;16.25;15.00;;;;;17.02;89.03;101109.97;5073373;27;45613;-77
2021/09/20 07:34:28;;;;;;;;;15.50;14.50;;;;;17.05;89.05;101112.38;5073529;28;45739;-79
2021/09/20 07:36:54;;;;;;;;;18.25;16.75;;;;;17.08;89.39;101108.59;5073414;27;46512;-77
2021/09/20 07:39:19;;;;;;;;;18.75;16.00;;;;;17.10;89.41;101120.72;5073189;27;45996;-77
2021/09/20 07:41:45;;;;;;;;;16.75;15.50;;;;;17.12;89.14;101126.69;5073285;27;45655;-77
2021/09/20 07:44:10;;;;;;;;;16.00;14.50;;;;;17.14;89.12;101122.13;5073463;27;45527;-77
2021/09/20 07:46:37;;;;;;;;;14.00;12.75;;;;;17.10;88.98;101110.13;5073328;27;45500;-78
2021/09/20 07:49:03;;;;;;;;;17.75;17.00;;;;;17.19;89.20;101119.88;5073341;27;46117;-77
2021/09/20 07:51:28;;;;;;;;;14.50;13.50;;;;;17.19;88.93;101114.59;5073239;27;45504;-78
2021/09/20 07:57:15;;;;;;;;;16.00;13.75;;;;;17.27;88.92;101123.66;5072943;28;45503;-75
2021/09/20 07:59:40;;;;;;;;;14.25;13.00;;;;;17.29;89.16;101119.03;5075901;27;45922;-76
2021/09/20 08:02:06;;;;;;;;;15.50;13.50;;;;;17.34;88.64;101122.94;5077016;27;45545;-77
2021/09/20 08:04:31;;;;;;;;;14.50;12.50;;;;;17.33;89.09;101123.91;5076866;27;45732;-76
2021/09/20 08:06:57;;;;;;;;;14.25;12.25;;;;;17.36;88.62;101121.00;5076442;27;45474;-77
2021/09/20 08:09:23;;;;;;;;;13.00;13.00;;;;;17.42;88.95;101124.91;5077152;27;45694;-78
2021/09/20 08:11:49;;;;;;;;;16.00;13.00;;;;;17.47;88.47;101126.16;5076652;28;45750;-77
2021/09/20 08:14:14;;;;;;;;;15.00;13.75;;;;;17.48;88.84;101127.84;5076711;27;45467;-77
2021/09/20 08:16:41;;;;;;;;;16.00;13.00;;;;;17.56;88.81;101132.41;5076645;27;45535;-78
2021/09/20 08:19:06;;;;;;;;;16.50;15.00;;;;;17.58;88.75;101133.13;5076585;27;45749;-78
2021/09/20 08:21:31;;;;;;;;;18.50;16.00;;;;;17.63;88.36;101136.22;5076631;27;45634;-77
2021/09/20 08:27:19;;;;;;;;;18.75;14.50;;;;;17.66;88.30;101138.56;5075905;28;46034;-78
2021/09/20 08:29:44;;;;;;;;;15.25;14.00;;;;;17.69;88.97;101145.41;5075840;27;47007;-78
2021/09/20 08:32:09;;;;;;;;;15.75;14.75;;;;;17.72;88.08;101145.94;5076023;27;45533;-78
2021/09/20 08:34:36;;;;;;;;;13.50;12.50;;;;;17.68;88.08;101133.13;5076521;27;45518;-75
2021/09/20 08:37:02;;;;;;;;;12.75;12.75;;;;;17.69;88.80;101146.25;5076029;27;46447;-78
2021/09/20 08:39:27;;;;;;;;;10.75;10.25;;;;;17.75;88.03;101158.09;5075595;27;46921;-78
2021/09/20 08:41:53;;;;;;;;;15.25;14.75;;;;;17.70;88.31;101139.13;5075455;27;45598;-78
2021/09/20 08:44:19;;;;;;;;;17.00;14.50;;;;;17.78;88.43;101155.16;5076129;28;45590;-78
2021/09/20 08:46:47;;;;;;;;;18.25;15.00;;;;;17.80;88.07;101158.50;5075678;27;46181;-76
2021/09/20 08:49:13;;;;;;;;;17.50;14.50;;;;;17.74;88.57;101141.34;5076141;27;46146;-77
2021/09/20 08:51:38;;;;;;;;;15.75;13.00;;;;;17.87;88.06;101159.59;5078878;27;45557;-76
2021/09/20 08:57:25;;;;;;;;;14.00;12.25;;;;;17.94;88.50;101161.53;5079867;28;46073;-78
2021/09/20 08:59:51;;;;;;;;;17.00;14.00;;;;;17.94;88.00;101163.34;5080132;27;45803;-78
2021/09/20 09:02:18;;;;;;;;;15.00;14.50;;;;;17.97;88.25;101155.13;5077460;27;45505;-78
2021/09/20 09:04:43;;;;;;;;;11.75;11.50;;;;;18.01;87.73;101164.47;5075282;27;45851;-78
2021/09/20 09:07:12;;;;;;;;;15.25;14.25;;;;;17.96;87.99;101164.91;5074922;27;45645;-78
2021/09/20 09:09:43;;;;;;;;;17.25;16.50;;;;;18.03;87.99;101159.84;5074689;27;45598;-78
2021/09/20 09:12:19;;;;;;;;;18.00;15.75;;;;;18.11;88.08;101181.19;5075361;27;45618;-78
2021/09/20 09:14:45;;;;;;;;;17.25;15.75;;;;;18.14;87.79;101170.28;5075690;27;45675;-78
2021/09/20 09:17:24;;;;;;;;;15.50;15.00;;;;;18.16;87.53;101168.31;5075148;27;46443;-77
2021/09/20 09:19:56;;;;;;;;;15.50;14.00;;;;;18.19;87.96;101172.53;5075447;27;46026;-78
2021/09/20 09:22:37;;;;;;;;;15.25;14.50;;;;;18.22;87.69;101173.06;5075471;27;45703;-78
2021/09/20 09:25:06;;;;;;;;;19.33;15.33;;;;;18.28;87.63;101177.78;5075322;27;45451;-77
2021/09/20 09:27:31;;;;;;;;;15.75;15.50;;;;;18.35;87.03;101184.16;5074793;27;47159;-78
2021/09/20 09:30:14;;;;;;;;;13.25;13.25;;;;;18.39;87.33;101180.25;5074731;27;46174;-76
2021/09/20 09:32:42;;;;;;;;;19.50;17.00;;;;;18.42;87.25;101181.78;5074702;27;45556;-78
2021/09/20 09:35:09;;;;;;;;;15.50;13.50;;;;;18.42;87.55;101174.66;5074879;27;45537;-77
2021/09/20 09:37:39;;;;;;;;;18.00;14.50;;;;;18.42;87.40;101171.16;5074929;27;45527;-78
2021/09/20 09:40:16;;;;;;;;;15.25;14.75;;;;;18.55;87.09;101186.78;5075089;27;46268;-78
2021/09/20 09:42:43;;;;;;;;;14.75;14.75;;;;;18.57;87.29;101183.00;5074659;27;45692;-78
2021/09/20 09:45:16;;;;;;;;;17.75;15.25;;;;;18.59;87.14;101177.56;5074989;27;45621;-76
2021/09/20 09:47:41;;;;;;;;;15.00;13.50;;;;;18.56;86.30;101177.84;5074843;27;45685;-77
2021/09/20 09:50:23;;;;;;;;;13.50;13.00;;;;;18.64;86.63;101188.56;5074801;28;45650;-78
2021/09/20 09:52:54;;;;;;;;;14.00;14.00;;;;;18.66;86.66;101178.66;5074724;27;45534;-78
2021/09/20 09:55:21;;;;;;;;;17.00;14.75;;;;;18.66;86.92;101184.78;5074467;27;45537;-77
2021/09/20 09:57:49;;;;;;;;;14.75;14.25;;;;;18.72;86.58;101196.66;5074520;27;46530;-77
2021/09/20 10:00:17;;;;;;;;;17.00;14.25;;;;;18.72;87.13;101197.47;5074479;27;45608;-78
2021/09/20 10:02:48;;;;;;;;;16.00;15.00;;;;;18.74;86.53;101205.28;5074771;27;45701;-78
2021/09/20 10:05:21;;;;;;;;;15.50;14.00;;;;;18.69;86.09;101189.78;5074597;27;45894;-77
2021/09/20 10:07:51;;;;;;;;;14.25;14.00;;;;;18.77;86.30;101202.34;5074188;27;45751;-77
2021/09/20 10:10:17;;;;;;;;;13.50;12.75;;;;;18.78;86.32;101202.22;5074709;27;46416;-78
2021/09/20 10:12:46;;;;;;;;;17.00;14.75;;;;;18.81;86.46;101209.88;5074705;28;45668;-77
2021/09/20 10:15:16;;;;;;;;;13.50;12.50;;;;;18.81;86.57;101214.34;5073824;27;45833;-78
2021/09/20 10:17:42;;;;;;;;;15.00;15.00;;;;;18.79;86.05;101206.50;5072486;28;46585;-78
2021/09/20 10:20:14;;;;;;;;;16.50;14.00;;;;;18.80;86.30;101215.31;5073787;27;46396;-79
2021/09/20 10:22:40;;;;;;;;;14.75;14.75;;;;;18.79;86.23;101209.16;5073563;27;45615;-78
2021/09/20 10:25:08;;;;;;;;;17.00;12.75;;;;;18.83;86.32;101212.38;5073977;27;45581;-75
2021/09/20 10:27:34;;;;;;;;;19.25;15.00;;;;;18.84;86.48;101214.03;5073595;27;47405;-77
2021/09/20 10:30:22;;;;;;;;;13.75;13.50;;;;;18.84;85.84;101214.88;5073601;27;46429;-77
2021/09/20 10:32:56;;;;;;;;;15.50;14.25;;;;;18.81;86.46;101206.38;5073687;27;45841;-76
2021/09/20 10:35:25;;;;;;;;;17.50;15.50;;;;;18.86;86.20;101206.75;5073966;27;45447;-79
2021/09/20 10:37:55;;;;;;;;;14.75;14.25;;;;;18.88;86.08;101215.44;5073411;27;47149;-78
2021/09/20 10:40:21;;;;;;;;;19.50;17.50;;;;;18.86;86.26;101210.25;5073673;27;45589;-79
2021/09/20 10:42:53;;;;;;;;;17.75;16.25;;;;;18.85;86.10;101205.94;5073953;27;45637;-78
2021/09/20 10:45:33;;;;;;;;;18.00;16.25;;;;;18.88;85.52;101207.47;5074047;27;45650;-78
2021/09/20 10:48:15;;;;;;;;;17.75;14.50;;;;;18.88;85.75;101207.47;5073804;27;46613;-78
2021/09/20 10:50:47;;;;;;;;;16.25;15.00;;;;;18.91;85.47;101208.97;5073686;27;46367;-78
2021/09/20 10:53:28;;;;;;;;;16.75;16.00;;;;;18.93;86.03;101215.81;5073850;27;45610;-78
2021/09/20 10:56:02;;;;;;;;;15.25;13.25;;;;;18.96;85.88;101214.66;5072705;28;45820;-77
2021/09/20 10:58:32;;;;;;;;;15.50;14.00;;;;;18.98;85.40;101210.91;5075238;27;45543;-79
2021/09/20 11:01:15;;;;;;;;;11.00;11.00;;;;;19.00;85.03;101222.19;5076129;27;46066;-80
2021/09/20 11:03:46;;;;;;;;;13.50;12.00;;;;;18.96;85.13;101206.69;5075909;27;45538;-77
2021/09/20 11:06:22;;;;;;;;;12.75;12.00;;;;;19.05;85.05;101211.16;5077415;27;45502;-77
2021/09/20 11:09:11;;;;;;;;;14.75;14.25;;;;;19.08;85.50;101218.81;5079463;27;47259;-77
2021/09/20 11:11:42;;;;;;;;;14.25;13.00;;;;;19.09;84.84;101205.38;5075953;27;46104;-77
2021/09/20 11:14:10;;;;;;;;;10.75;10.25;;;;;19.13;84.90;101206.75;5074062;28;45829;-78
2021/09/20 11:16:44;;;;;;;;;10.00;9.50;;;;;19.17;84.92;101210.75;5074025;27;45576;-78
2021/09/20 11:19:28;;;;;;;;;14.25;10.75;;;;;19.20;84.75;101202.50;5073661;28;46535;-77
2021/09/20 11:22:02;;;;;;;;;12.25;10.00;;;;;19.22;84.65;101205.84;5073800;27;45451;-78
2021/09/20 11:24:44;;;;;;;;;15.00;12.75;;;;;19.25;84.25;101226.81;5074300;28;45538;-78
2021/09/20 11:27:23;;;;;;;;;12.75;12.25;;;;;19.28;84.26;101218.53;5075012;27;45502;-78
2021/09/20 11:29:54;;;;;;;;;11.75;11.75;;;;;19.26;84.61;101204.56;5074324;27;45556;-76
2021/09/20 11:32:19;;;;;;;;;11.75;11.50;;;;;19.24;84.11;101203.03;5074067;27;46073;-78
2021/09/20 11:34:49;;;;;;;;;14.25;13.50;;;;;19.36;84.41;101223.09;5077314;27;45569;-76
2021/09/20 11:37:27;;;;;;;;;13.25;12.25;;;;;19.34;83.74;101211.78;5077466;27;45474;-78
2021/09/20 11:40:02;;;;;;;;;13.75;11.75;;;;;19.41;83.88;101223.47;5076917;28;45677;-77
2021/09/20 11:42:52;;;;;;;;;13.75;12.75;;;;;19.36;83.79;101214.28;5076803;27;45973;-78
2021/09/20 11:45:25;;;;;;;;;13.25;12.00;;;;;19.47;83.81;101220.25;5077057;27;45832;-78
2021/09/20 11:47:58;;;;;;;;;12.75;12.25;;;;;19.43;84.31;101208.22;5077140;28;45746;-75
2021/09/20 11:50:26;;;;;;;;;12.75;12.75;;;;;19.54;83.34;101226.63;5077099;27;45581;-79
2021/09/20 11:56:15;;;;;;;;;13.00;12.00;;;;;19.59;83.15;101227.03;5076972;28;45725;-77
2021/09/20 11:58:50;;;;;;;;;13.50;12.00;;;;;19.61;83.15;101233.00;5075505;28;45986;-78
2021/09/20 12:01:21;;;;;;;;;13.25;11.75;;;;;19.63;83.09;101230.22;5076731;27;46277;-77
2021/09/20 12:03:54;;;;;;;;;10.50;10.50;;;;;19.67;83.06;101234.22;5076748;27;46270;-77
2021/09/20 12:06:27;;;;;;;;;13.25;11.00;;;;;19.69;83.08;101234.91;5076420;27;45675;-78
2021/09/20 12:12:14;;;;;;;;;12.75;12.00;;;;;19.71;83.01;101238.25;5076225;28;45638;-77
2021/09/20 12:14:40;;;;;;;;;12.25;12.00;;;;;19.66;82.47;101233.38;5076245;27;46309;-77
2021/09/20 12:17:05;;;;;;;;;10.75;9.50;;;;;19.74;82.78;101245.94;5076333;27;45639;-77
2021/09/20 12:19:30;;;;;;;;;12.00;12.00;;;;;19.76;82.57;101238.63;5076867;27;45873;-78
2021/09/20 12:22:00;;;;;;;;;13.75;13.25;;;;;19.73;82.50;101238.09;5076891;27;45517;-78
2021/09/20 12:27:48;;;;;;;;;14.25;13.50;;;;;19.68;82.66;101233.25;5076016;28;45747;-77
2021/09/20 12:30:18;;;;;;;;;12.75;12.25;;;;;19.80;82.46;101255.97;5077018;27;45803;-77
2021/09/20 12:32:44;;;;;;;;;14.75;13.00;;;;;19.80;82.16;101242.66;5076569;27;46385;-76
2021/09/20 12:35:10;;;;;;;;;12.25;12.25;;;;;19.83;82.18;101254.81;5076185;27;46117;-78
2021/09/20 12:37:36;;;;;;;;;13.25;11.75;;;;;19.83;82.23;101249.47;5075947;27;45582;-78
2021/09/20 12:43:32;;;;;;;;;14.00;12.00;;;;;19.91;81.80;101253.06;5064470;28;45661;-78
2021/09/20 12:46:18;;;;;;;;;12.50;11.25;;;;;19.95;81.29;101256.25;5075789;27;47035;-77
2021/09/20 12:48:50;;;;;;;;;10.25;9.25;;;;;19.90;81.56;101240.75;5076064;27;45676;-77
2021/09/20 12:51:16;;;;;;;;;11.75;11.00;;;;;19.94;81.14;101244.75;5076063;27;45741;-78